Time;durP1;ratioP1;P1;durP2;ratioP2;P2;SDS_P1;SDS_P2;PMS_P1;PMS_P2;Temp;Humidity;BMP_temperature;BMP_pressure;BME280_temperature;BME280_humidity;BME280_pressure;Samples;Min_cycle;Max_cycle;Signal;HPM_P1;HPM_P2
2022/05/25 00:02:01;;;;;;;82.65;57.95;;;13.90;99.90;;;;;;5036271;28;20211;-52
2022/05/25 00:04:27;;;;;;;68.82;52.92;;;13.70;99.90;;;;;;5036128;28;20199;-52
2022/05/25 00:06:53;;;;;;;66.95;47.88;;;14.00;99.90;;;;;;5037807;28;20212;-52
2022/05/25 00:09:20;;;;;;;83.72;52.17;;;13.80;99.90;;;;;;5040273;28;20541;-51
2022/05/25 00:11:46;;;;;;;83.95;47.30;;;13.90;99.90;;;;;;5039879;28;20726;-52
2022/05/25 00:14:12;;;;;;;86.35;41.70;;;13.90;99.90;;;;;;5039365;28;20180;-52
2022/05/25 00:16:38;;;;;;;107.65;45.13;;;13.70;99.90;;;;;;5037643;28;20214;-53
2022/05/25 00:21:48;;;;;;;55.38;24.33;;;13.40;99.90;;;;;;5036080;28;20726;-52
2022/05/25 00:24:14;;;;;;;80.32;31.88;;;;;;;;;;5039417;28;20215;-53
2022/05/25 00:26:39;;;;;;;69.30;28.88;;;13.50;99.90;;;;;;5040002;28;20592;-52
2022/05/25 00:29:05;;;;;;;87.93;32.47;;;;;;;;;;5044163;28;20187;-51
2022/05/25 00:31:32;;;;;;;70.95;28.83;;;;;;;;;;5044359;28;20561;-52
2022/05/25 00:33:58;;;;;;;77.40;27.75;;;;;;;;;;5041798;28;20216;-51
2022/05/25 00:36:24;;;;;;;89.68;32.42;;;;;;;;;;5040417;28;20218;-52
2022/05/25 00:38:50;;;;;;;72.55;25.73;;;;;;;;;;5039726;28;20219;-51
2022/05/25 00:41:16;;;;;;;65.80;23.20;;;;;;;;;;5040254;28;20261;-51
2022/05/25 00:43:45;;;;;;;51.72;20.20;;;;;;;;;;5038193;28;20203;-51
2022/05/25 00:46:15;;;;;;;67.00;23.77;;;13.60;99.90;;;;;;5041530;28;20605;-52
2022/05/25 00:48:44;;;;;;;70.47;23.38;;;13.40;99.90;;;;;;5041902;28;20306;-52
2022/05/25 00:51:15;;;;;;;77.40;24.08;;;13.40;99.90;;;;;;5034072;28;20218;-51
2022/05/25 00:53:43;;;;;;;54.10;18.25;;;13.40;99.90;;;;;;5039935;28;20643;-51
2022/05/25 00:56:12;;;;;;;56.45;17.45;;;13.30;99.90;;;;;;5045917;28;20534;-51
2022/05/25 00:58:39;;;;;;;61.50;19.97;;;13.30;99.90;;;;;;5023198;28;20318;-51
2022/05/25 01:01:04;;;;;;;50.50;15.97;;;13.40;99.90;;;;;;5038234;28;20470;-52
2022/05/25 01:03:30;;;;;;;72.83;19.87;;;13.10;99.90;;;;;;5041133;28;20667;-52
2022/05/25 01:06:25;;;;;;;69.95;18.52;;;13.20;99.90;;;;;;5040761;28;20344;-52
2022/05/25 01:09:04;;;;;;;75.17;19.53;;;13.00;99.90;;;;;;5025627;28;20680;-52
2022/05/25 01:11:50;;;;;;;63.50;15.95;;;12.90;99.90;;;;;;5037825;28;20192;-52
2022/05/25 01:14:38;;;;;;;68.28;15.40;;;12.90;99.90;;;;;;5040079;28;20270;-51
2022/05/25 01:17:31;;;;;;;72.50;16.07;;;13.10;99.90;;;;;;5041471;28;20215;-52
2022/05/25 01:20:22;;;;;;;99.63;21.15;;;12.90;99.90;;;;;;5036342;28;20273;-52
2022/05/25 01:23:05;;;;;;;67.67;14.80;;;12.90;99.90;;;;;;5040848;28;20220;-52
2022/05/25 01:25:59;;;;;;;75.20;16.83;;;12.80;99.90;;;;;;5041725;28;20680;-51
2022/05/25 01:28:46;;;;;;;54.00;11.90;;;13.00;99.90;;;;;;5034037;28;20268;-52
2022/05/25 01:31:17;;;;;;;65.77;14.33;;;12.80;99.90;;;;;;5038547;28;20225;-52
2022/05/25 01:33:43;;;;;;;62.17;13.73;;;;;;;;;;5040665;28;20226;-51
2022/05/25 01:36:21;;;;;;;67.43;14.90;;;12.70;99.90;;;;;;5042514;28;20754;-52
2022/05/25 01:39:07;;;;;;;50.45;10.95;;;10.80;99.90;;;;;;5043324;28;20246;-51
2022/05/25 01:42:07;;;;;;;47.13;10.83;;;12.90;99.90;;;;;;5041929;28;20242;-52
2022/05/25 01:44:56;;;;;;;59.55;13.55;;;12.40;99.90;;;;;;5037375;28;20447;-52
2022/05/25 01:47:26;;;;;;;58.20;12.33;;;12.70;99.90;;;;;;5037895;28;20419;-52
2022/05/25 01:49:56;;;;;;;60.00;12.88;;;12.60;99.90;;;;;;5041183;28;20207;-52
2022/05/25 01:52:28;;;;;;;46.70;11.03;;;12.50;99.90;;;;;;5039848;28;20655;-52
2022/05/25 01:55:08;;;;;;;60.43;13.33;;;12.40;99.90;;;;;;5039475;28;20212;-52
2022/05/25 01:57:37;;;;;;;53.73;11.67;;;12.40;99.90;;;;;;5035080;28;20219;-50
2022/05/25 02:00:05;;;;;;;79.35;16.70;;;12.50;99.90;;;;;;5040513;28;20223;-52
2022/05/25 02:05:17;;;;;;;49.37;10.40;;;12.30;99.90;;;;;;5039134;28;20171;-52
2022/05/25 02:07:57;;;;;;;56.03;11.73;;;12.10;99.90;;;;;;5038779;28;20629;-51
2022/05/25 02:10:52;;;;;;;44.07;9.77;;;12.30;99.90;;;;;;5041369;28;20577;-52
2022/05/25 02:13:41;;;;;;;70.47;14.97;;;12.20;99.90;;;;;;5036236;28;20215;-51
2022/05/25 02:16:41;;;;;;;20.77;5.03;;;12.20;99.90;;;;;;5040456;28;20612;-52
2022/05/25 02:19:31;;;;;;;36.07;8.37;;;12.30;99.90;;;;;;5037186;28;20211;-52
2022/05/25 02:22:16;;;;;;;70.07;14.77;;;12.00;99.90;;;;;;5041038;28;20813;-51
2022/05/25 02:24:50;;;;;;;46.20;10.30;;;12.10;99.90;;;;;;5041359;28;20212;-51
2022/05/25 02:27:25;;;;;;;26.50;6.23;;;12.10;99.90;;;;;;5043493;28;20253;-51
2022/05/25 02:29:56;;;;;;;65.73;12.97;;;12.20;99.90;;;;;;5039491;28;20219;-51
2022/05/25 02:33:02;;;;;;;90.93;18.17;;;12.10;99.90;;;;;;5029299;28;20612;-50
2022/05/25 02:35:29;;;;;;;61.53;12.37;;;12.10;99.90;;;;;;5032964;28;20211;-51
2022/05/25 02:37:59;;;;;;;66.97;13.33;;;11.90;99.90;;;;;;5046790;28;20214;-51
2022/05/25 02:40:27;;;;;;;48.67;10.00;;;12.30;99.90;;;;;;5044818;28;20226;-52
2022/05/25 02:42:53;;;;;;;37.03;7.60;;;11.90;99.90;;;;;;5047299;28;20214;-52
2022/05/25 02:45:19;;;;;;;45.27;9.27;;;12.10;99.90;;;;;;5042143;28;20211;-52
2022/05/25 02:47:45;;;;;;;70.73;14.03;;;12.00;99.90;;;;;;5040650;28;22867;-51
2022/05/25 02:50:11;;;;;;;38.50;8.03;;;;;;;;;;5045961;28;20187;-51
2022/05/25 02:52:37;;;;;;;77.67;15.13;;;;;;;;;;5047145;28;20623;-51
2022/05/25 02:55:04;;;;;;;54.63;10.90;;;13.00;99.90;;;;;;5040533;28;20395;-51
2022/05/25 02:57:30;;;;;;;65.50;13.30;;;;;;;;;;5042173;28;20216;-52
2022/05/25 02:59:56;;;;;;;73.43;14.73;;;;;;;;;;5040322;28;20220;-52
2022/05/25 03:02:21;;;;;;;39.77;8.00;;;12.10;99.90;;;;;;5042943;28;20182;-52
2022/05/25 03:04:48;;;;;;;64.47;12.88;;;11.80;99.90;;;;;;5045299;28;20668;-51
2022/05/25 03:07:13;;;;;;;47.70;9.40;;;12.00;99.90;;;;;;5024814;28;20234;-52
2022/05/25 03:09:39;;;;;;;67.63;13.10;;;;;;;;;;5044136;28;20211;-51
2022/05/25 03:12:07;;;;;;;70.33;13.83;;;12.00;99.90;;;;;;5043731;28;20236;-52
2022/05/25 03:14:34;;;;;;;66.97;13.37;;;11.90;99.90;;;;;;5044453;28;20208;-52
2022/05/25 03:17:08;;;;;;;79.13;15.20;;;12.00;99.90;;;;;;5046096;28;20253;-51
2022/05/25 03:19:34;;;;;;;31.00;6.50;;;;;;;;;;5046264;28;20575;-52
2022/05/25 03:22:00;;;;;;;62.40;12.53;;;12.00;99.90;;;;;;5046159;28;20683;-52
2022/05/25 03:24:25;;;;;;;61.17;12.43;;;12.00;99.90;;;;;;5043419;28;20216;-52
2022/05/25 03:26:51;;;;;;;58.87;12.00;;;12.60;99.90;;;;;;5047014;28;20727;-52
2022/05/25 03:29:18;;;;;;;54.20;10.77;;;;;;;;;;5042389;28;20208;-52
2022/05/25 03:31:43;;;;;;;77.23;15.10;;;12.50;99.90;;;;;;5043201;28;20698;-52
2022/05/25 03:34:09;;;;;;;68.13;13.77;;;;;;;;;;5042147;28;20262;-51
2022/05/25 03:36:35;;;;;;;77.93;15.93;;;;;;;;;;5041299;28;20222;-51
2022/05/25 03:39:01;;;;;;;59.70;12.07;;;;;;;;;;5042934;28;20729;-52
2022/05/25 03:41:27;;;;;;;85.53;16.58;;;;;;;;;;5038174;28;20629;-51
2022/05/25 03:43:53;;;;;;;50.40;10.87;;;;;;;;;;5046196;28;20184;-50
2022/05/25 03:46:19;;;;;;;29.50;6.57;;;;;;;;;;5027825;28;20216;-52
2022/05/25 03:48:45;;;;;;;60.13;12.10;;;;;;;;;;5046419;28;20637;-51
2022/05/25 03:51:11;;;;;;;52.17;10.75;;;;;;;;;;5041366;28;20215;-52
2022/05/25 03:53:37;;;;;;;122.88;24.77;;;;;;;;;;5041140;28;20239;-52
2022/05/25 03:56:05;;;;;;;58.65;11.80;;;13.30;99.90;;;;;;5045339;28;20652;-52
2022/05/25 03:58:30;;;;;;;57.05;11.88;;;13.10;99.90;;;;;;5040497;28;20691;-52
2022/05/25 04:00:56;;;;;;;61.83;12.50;;;;;;;;;;5046112;28;20223;-52
2022/05/25 04:03:23;;;;;;;59.03;12.33;;;13.20;99.90;;;;;;5042802;28;20208;-51
2022/05/25 04:05:48;;;;;;;54.83;11.23;;;13.50;99.90;;;;;;5046062;28;20219;-52
2022/05/25 04:08:14;;;;;;;104.85;21.13;;;;;;;;;;5042860;28;20203;-51
2022/05/25 04:10:40;;;;;;;65.15;13.40;;;;;;;;;;5037027;28;20211;-51
2022/05/25 04:13:06;;;;;;;76.72;16.55;;;13.10;99.90;;;;;;5038003;28;20219;-51
2022/05/25 04:15:34;;;;;;;101.35;20.17;;;13.10;99.90;;;;;;5037631;28;20614;-52
2022/05/25 04:18:00;;;;;;;101.50;20.77;;;;;;;;;;5036711;28;20297;-52
2022/05/25 04:20:28;;;;;;;69.55;14.88;;;13.30;99.90;;;;;;5045768;28;20214;-52
2022/05/25 04:22:54;;;;;;;74.22;15.60;;;;;;;;;;5040143;28;20678;-51
2022/05/25 04:25:22;;;;;;;65.88;14.15;;;13.30;99.90;;;;;;5032163;28;20691;-53
2022/05/25 04:27:50;;;;;;;63.33;13.90;;;13.50;99.90;;;;;;5039371;28;20218;-52
2022/05/25 04:30:18;;;;;;;94.80;19.40;;;13.70;99.90;;;;;;5035458;28;20226;-51
2022/05/25 04:32:44;;;;;;;60.88;12.88;;;13.70;99.90;;;;;;5035648;28;20200;-52
2022/05/25 04:35:12;;;;;;;71.78;14.60;;;14.00;99.90;;;;;;5040826;28;20568;-52
2022/05/25 04:37:49;;;;;;;63.55;13.48;;;14.30;99.90;;;;;;5039877;28;20223;-52
2022/05/25 04:40:37;;;;;;;85.72;18.17;;;13.90;99.90;;;;;;5037401;28;20580;-52
2022/05/25 04:43:12;;;;;;;59.50;12.27;;;14.10;99.90;;;;;;5024866;28;20211;-52
2022/05/25 04:45:39;;;;;;;78.80;17.08;;;14.10;99.90;;;;;;5036520;28;20211;-52
2022/05/25 04:48:05;;;;;;;97.60;20.48;;;;;;;;;;5034322;28;20220;-52
2022/05/25 04:50:34;;;;;;;72.43;15.15;;;14.10;99.90;;;;;;5037707;28;20666;-51
2022/05/25 04:53:00;;;;;;;70.35;14.93;;;14.30;99.90;;;;;;5039308;28;20795;-52
2022/05/25 04:58:26;;;;;;;67.65;14.40;;;14.10;99.90;;;;;;5038960;28;20242;-53
2022/05/25 05:00:52;;;;;;;121.53;25.25;;;;;;;;;;5032417;28;20255;-52
2022/05/25 05:03:20;;;;;;;70.18;15.13;;;14.40;99.90;;;;;;5039209;28;20268;-52
2022/05/25 05:05:46;;;;;;;78.97;17.15;;;;;;;;;;5035864;28;20457;-51
2022/05/25 05:08:12;;;;;;;67.57;14.27;;;;;;;;;;5041935;28;20290;-52
2022/05/25 05:10:38;;;;;;;39.55;8.65;;;;;;;;;;5038058;28;20223;-51
2022/05/25 05:13:04;;;;;;;64.03;13.05;;;;;;;;;;5040133;28;20234;-51
2022/05/25 05:15:43;;;;;;;54.83;12.15;;;14.80;74.80;;;;;;5036252;28;20608;-52
2022/05/25 05:18:09;;;;;;;82.47;17.08;;;15.00;92.80;;;;;;5039706;28;20219;-52
2022/05/25 05:20:35;;;;;;;42.28;9.43;;;15.30;78.30;;;;;;5040548;28;20303;-52
2022/05/25 05:23:01;;;;;;;75.55;15.90;;;15.60;27.00;;;;;;5036533;28;20212;-53
2022/05/25 05:25:27;;;;;;;68.60;14.88;;;;;;;;;;5045444;28;20215;-52
2022/05/25 05:27:53;;;;;;;81.78;17.58;;;15.30;24.00;;;;;;5040947;28;20687;-51
2022/05/25 05:30:21;;;;;;;118.68;25.73;;;15.50;1.00;;;;;;5023890;28;20232;-53
2022/05/25 05:32:48;;;;;;;98.68;21.35;;;15.50;17.20;;;;;;5033854;28;20305;-53
2022/05/25 05:35:14;;;;;;;48.10;11.48;;;;;;;;;;5024083;28;20183;-52
2022/05/25 05:37:48;;;;;;;135.05;27.58;;;15.80;1.00;;;;;;5021950;28;20439;-53
2022/05/25 05:40:16;;;;;;;107.65;23.15;;;15.70;1.00;;;;;;5021836;28;20212;-54
2022/05/25 05:42:44;;;;;;;82.85;18.33;;;15.90;1.00;;;;;;5023269;28;20473;-53
2022/05/25 05:45:17;;;;;;;138.85;29.83;;;16.00;1.00;;;;;;5013127;28;20203;-52
2022/05/25 05:47:51;;;;;;;169.18;35.60;;;16.20;1.00;;;;;;5018544;28;20191;-53
2022/05/25 05:50:20;;;;;;;182.07;39.88;;;16.10;1.00;;;;;;5018794;28;20269;-53
2022/05/25 05:52:47;;;;;;;125.47;27.98;;;16.20;1.00;;;;;;5020479;28;20219;-53
2022/05/25 05:55:13;;;;;;;137.27;28.92;;;16.40;1.00;;;;;;5027992;28;20239;-53
2022/05/25 05:57:39;;;;;;;210.63;44.95;;;;;;;;;;5019379;28;20409;-53
2022/05/25 06:00:08;;;;;;;213.05;47.08;;;16.70;1.00;;;;;;5019343;28;20615;-53
2022/05/25 06:02:34;;;;;;;77.88;16.65;;;;;;;;;;5031196;28;20223;-54
2022/05/25 06:05:00;;;;;;;100.97;21.20;;;;;;;;;;5031958;28;20239;-54
2022/05/25 06:07:26;;;;;;;82.85;19.20;;;;;;;;;;5044252;28;20580;-54
2022/05/25 06:09:51;;;;;;;120.38;26.13;;;;;;;;;;5033675;28;20215;-55
2022/05/25 06:12:18;;;;;;;30.42;8.27;;;;;;;;;;5030235;28;20215;-54
2022/05/25 06:14:43;;;;;;;90.72;19.63;;;;;;;;;;5024109;28;20333;-54
2022/05/25 06:19:54;;;;;;;97.68;21.73;;;;;;;;;;5024053;28;20705;-55
2022/05/25 06:22:20;;;;;;;168.07;35.63;;;;;;;;;;5022827;28;20688;-53
2022/05/25 06:24:48;;;;;;;96.97;22.42;;;17.70;1.00;;;;;;5029574;28;20230;-55
2022/05/25 06:27:15;;;;;;;131.43;28.98;;;18.00;25.70;;;;;;5027970;28;20227;-56
2022/05/25 06:29:44;;;;;;;111.95;25.63;;;18.10;99.90;;;;;;5021420;28;20288;-53
2022/05/25 06:32:11;;;;;;;74.22;16.67;;;18.20;99.90;;;;;;5022852;28;20253;-52
2022/05/25 06:34:39;;;;;;;96.32;21.17;;;18.50;1.00;;;;;;5022370;28;20707;-53
2022/05/25 06:37:05;;;;;;;113.18;26.23;;;18.40;1.00;;;;;;5030657;28;20330;-53
2022/05/25 06:39:36;;;;;;;67.70;16.02;;;18.60;1.00;;;;;;5037151;28;20207;-53
2022/05/25 06:42:02;;;;;;;261.92;56.63;;;;;;;;;;5027320;28;20591;-53
2022/05/25 06:44:28;;;;;;;120.50;27.15;;;;;;;;;;5022924;28;20604;-52
2022/05/25 06:46:54;;;;;;;119.32;28.50;;;;;;;;;;5029325;28;20277;-52
2022/05/25 06:49:20;;;;;;;149.63;28.05;;;18.00;99.90;;;;;;5024835;28;20207;-53
2022/05/25 06:51:46;;;;;;;109.43;21.05;;;;;;;;;;5024324;28;20376;-52
2022/05/25 06:54:14;;;;;;;97.72;19.05;;;18.20;1.00;;;;;;5023584;28;20219;-54
2022/05/25 06:56:40;;;;;;;175.20;37.60;;;;;;;;;;5030405;28;20203;-52
2022/05/25 06:59:06;;;;;;;206.20;44.22;;;;;;;;;;5018302;28;20814;-54
2022/05/25 07:01:35;;;;;;;162.23;35.40;;;18.50;99.90;;;;;;5025072;28;20234;-53
2022/05/25 07:04:01;;;;;;;167.85;36.53;;;;;;;;;;5019814;28;20294;-53
2022/05/25 07:06:27;;;;;;;124.80;28.08;;;;;;;;;;5026775;28;20354;-53
2022/05/25 07:08:53;;;;;;;115.38;25.15;;;;;;;;;;5036571;28;20219;-53
2022/05/25 07:11:20;;;;;;;136.55;28.92;;;18.80;99.90;;;;;;5024277;28;20196;-54
2022/05/25 07:13:46;;;;;;;109.53;24.98;;;18.60;1.00;;;;;;5017733;28;20273;-53
2022/05/25 07:16:15;;;;;;;155.48;35.13;;;18.60;99.90;;;;;;5023928;28;20215;-54
2022/05/25 07:18:43;;;;;;;73.43;17.63;;;19.90;1.00;;;;;;5037554;28;20219;-53
2022/05/25 07:21:15;;;;;;;200.52;44.30;;;18.50;1.00;;;;;;5015067;28;20238;-51
2022/05/25 07:23:43;;;;;;;76.85;17.98;;;18.50;1.00;;;;;;5028229;28;20191;-53
2022/05/25 07:26:09;;;;;;;446.35;105.22;;;18.40;1.00;;;;;;5016853;28;20341;-51
2022/05/25 07:28:36;;;;;;;206.23;46.30;;;18.60;1.00;;;;;;5022375;28;20239;-52
2022/05/25 07:31:14;;;;;;;128.82;28.88;;;18.50;99.90;;;;;;5029640;28;20216;-52
2022/05/25 07:33:42;;;;;;;145.52;32.33;;;18.30;1.00;;;;;;5023232;28;20215;-52
2022/05/25 07:36:10;;;;;;;150.73;33.83;;;18.30;1.00;;;;;;5017000;28;20215;-51
2022/05/25 07:38:38;;;;;;;88.00;19.35;;;18.40;1.00;;;;;;5027362;28;20261;-51
2022/05/25 07:41:03;;;;;;;116.95;23.48;;;;;;;;;;5030541;28;20216;-54
2022/05/25 07:43:32;;;;;;;125.13;28.63;;;18.50;1.00;;;;;;5020239;28;20219;-52
2022/05/25 07:45:58;;;;;;;161.13;36.72;;;;;;;;;;5036212;28;20208;-53
2022/05/25 07:48:24;;;;;;;81.00;18.50;;;18.60;1.00;;;;;;5022304;28;20691;-54
2022/05/25 07:50:50;;;;;;;24.35;6.55;;;18.70;1.00;;;;;;5012658;28;20417;-53
2022/05/25 07:56:03;;;;;;;89.55;20.35;;;18.60;99.90;;;;;;5032295;28;20266;-53
2022/05/25 07:58:30;;;;;;;67.88;15.63;;;18.80;1.00;;;;;;5035755;28;20242;-54
2022/05/25 08:00:57;;;;;;;77.70;17.27;;;18.90;1.00;;;;;;5038847;28;20216;-54
2022/05/25 08:06:07;;;;;;;39.72;9.77;;;18.80;85.90;;;;;;5034280;28;20315;-54
2022/05/25 08:08:33;;;;;;;47.33;11.77;;;19.10;1.00;;;;;;5039599;28;20204;-54
2022/05/25 08:11:06;;;;;;;41.78;10.55;;;19.30;99.90;;;;;;5040603;28;20754;-54
2022/05/25 08:13:34;;;;;;;110.50;24.65;;;19.30;1.00;;;;;;5031947;28;20230;-54
2022/05/25 08:16:00;;;;;;;61.05;14.18;;;19.10;1.00;;;;;;5038071;28;20698;-54
2022/05/25 08:18:26;;;;;;;70.68;17.25;;;;;;;;;;5031407;28;20224;-53
2022/05/25 08:20:52;;;;;;;52.22;13.18;;;;;;;;;;5036337;28;20708;-54
2022/05/25 08:23:18;;;;;;;133.15;32.92;;;;;;;;;;5033150;28;20786;-53
2022/05/25 08:25:44;;;;;;;74.82;18.13;;;20.30;1.00;;;;;;5027195;28;20238;-53
2022/05/25 08:28:11;;;;;;;119.22;28.27;;;20.50;99.90;;;;;;5037324;28;20306;-54
2022/05/25 08:30:38;;;;;;;72.00;18.08;;;20.30;1.00;;;;;;5043269;28;20690;-53
2022/05/25 08:33:04;;;;;;;84.65;21.70;;;20.60;99.90;;;;;;5034764;28;20700;-54
2022/05/25 08:35:30;;;;;;;86.13;26.58;;;;;;;;;;5037523;28;20184;-53
2022/05/25 08:37:57;;;;;;;73.75;19.15;;;20.80;1.00;;;;;;5036164;28;20278;-54
2022/05/25 08:40:25;;;;;;;77.32;19.65;;;20.60;1.00;;;;;;5038045;28;20581;-54
2022/05/25 08:42:55;;;;;;;84.22;21.38;;;20.80;13.80;;;;;;5037317;28;20725;-53
2022/05/25 08:45:24;;;;;;;106.70;31.63;;;20.70;99.90;;;;;;5035232;28;20234;-54
2022/05/25 08:47:56;;;;;;;59.55;15.43;;;20.60;99.90;;;;;;5038093;28;20792;-53
2022/05/25 08:50:22;;;;;;;117.93;27.90;;;20.60;99.90;;;;;;5042054;28;20245;-53
2022/05/25 08:52:48;;;;;;;72.32;18.55;;;;;;;;;;5019663;28;20212;-53
2022/05/25 08:55:39;;;;;;;69.60;18.40;;;20.50;99.90;;;;;;5041879;28;20579;-54
2022/05/25 08:58:08;;;;;;;39.17;10.98;;;20.60;1.00;;;;;;5042656;28;20334;-54
2022/05/25 09:00:34;;;;;;;93.72;22.90;;;20.80;99.90;;;;;;5042323;28;20729;-54
2022/05/25 09:03:22;;;;;;;93.20;23.73;;;20.70;99.90;;;;;;5037202;28;20295;-53
2022/05/25 09:06:02;;;;;;;61.88;15.27;;;21.00;67.80;;;;;;5042395;28;20216;-54
2022/05/25 09:08:58;;;;;;;61.72;15.93;;;21.00;2.20;;;;;;5035430;28;20283;-54
2022/05/25 09:11:44;;;;;;;115.97;28.95;;;20.50;1.00;;;;;;5035581;28;20244;-53
2022/05/25 09:14:37;;;;;;;80.30;20.52;;;20.70;99.90;;;;;;5031694;28;20234;-54
2022/05/25 09:17:08;;;;;;;83.97;20.48;;;20.50;1.00;;;;;;5036032;28;20245;-54
2022/05/25 09:19:41;;;;;;;59.78;15.73;;;20.60;99.90;;;;;;5037810;28;20216;-53
2022/05/25 09:22:17;;;;;;;99.97;24.80;;;20.40;99.90;;;;;;5039450;28;20714;-53
2022/05/25 09:24:43;;;;;;;91.38;22.70;;;20.50;1.00;;;;;;5034778;28;20273;-53
2022/05/25 09:27:12;;;;;;;64.40;16.15;;;20.20;1.00;;;;;;5034598;28;20259;-54
2022/05/25 09:29:40;;;;;;;73.60;18.50;;;20.20;99.90;;;;;;5035703;28;20295;-54
2022/05/25 09:32:29;;;;;;;87.13;22.00;;;20.70;1.00;;;;;;5039006;28;20212;-54
2022/05/25 09:35:06;;;;;;;75.90;19.58;;;20.10;99.90;;;;;;5035154;28;20296;-53
2022/05/25 09:37:42;;;;;;;76.30;19.02;;;20.40;99.90;;;;;;5038819;28;20307;-53
2022/05/25 09:40:24;;;;;;;112.45;27.20;;;20.50;99.90;;;;;;5035413;28;20215;-54
2022/05/25 09:42:53;;;;;;;54.85;14.40;;;20.60;99.90;;;;;;5028850;28;20216;-54
2022/05/25 09:45:20;;;;;;;127.00;29.83;;;20.40;99.90;;;;;;5032634;28;20204;-54
2022/05/25 09:47:48;;;;;;;55.80;15.25;;;20.50;99.90;;;;;;5033810;28;20300;-54
2022/05/25 09:50:27;;;;;;;88.50;21.58;;;20.50;99.90;;;;;;5031482;28;20679;-54
2022/05/25 09:52:53;;;;;;;122.82;30.50;;;20.60;1.00;;;;;;5042290;28;20206;-53
2022/05/25 09:55:25;;;;;;;87.60;21.55;;;20.40;57.30;;;;;;5033642;28;20228;-54
2022/05/25 09:58:04;;;;;;;68.45;17.45;;;20.70;1.00;;;;;;5038083;28;20207;-54
2022/05/25 10:00:33;;;;;;;44.17;12.77;;;20.40;99.90;;;;;;5040247;28;20700;-53
2022/05/25 10:03:19;;;;;;;92.95;22.33;;;20.30;1.00;;;;;;5042533;28;20276;-54
2022/05/25 10:05:54;;;;;;;82.65;21.08;;;20.40;99.90;;;;;;5037083;28;20195;-52
2022/05/25 10:08:27;;;;;;;87.35;21.88;;;20.30;99.90;;;;;;5036781;28;20207;-54
2022/05/25 10:10:56;;;;;;;90.28;22.15;;;20.60;99.90;;;;;;5037184;28;20285;-54
2022/05/25 10:13:28;;;;;;;58.08;15.68;;;21.10;99.10;;;;;;5039430;28;20508;-54
2022/05/25 10:15:54;;;;;;;64.55;17.20;;;;;;;;;;5034977;28;20564;-52
2022/05/25 10:18:41;;;;;;;157.77;36.00;;;20.80;99.90;;;;;;5037876;28;20224;-53
2022/05/25 10:21:20;;;;;;;117.30;27.58;;;20.80;99.90;;;;;;5027921;28;20310;-54
2022/05/25 10:23:46;;;;;;;73.95;17.90;;;;;;;;;;5037102;28;20703;-54
2022/05/25 10:26:18;;;;;;;65.88;16.15;;;20.60;1.00;;;;;;5040881;28;20221;-54
2022/05/25 10:28:47;;;;;;;56.22;14.88;;;20.70;99.90;;;;;;5036128;28;20305;-53
2022/05/25 10:36:59;;;;;;;67.55;16.75;;;;;;;;;;5032345;28;20235;-54
2022/05/25 10:39:36;;;;;;;58.17;15.65;;;20.30;1.00;;;;;;5032934;28;20209;-53
2022/05/25 10:42:02;;;;;;;131.45;32.67;;;;;;;;;;5036069;28;20226;-52
2022/05/25 10:44:38;;;;;;;97.47;23.73;;;20.70;99.90;;;;;;5039574;28;20191;-53
2022/05/25 10:47:10;;;;;;;79.10;19.48;;;20.40;1.00;;;;;;5040542;28;20700;-53
2022/05/25 10:49:43;;;;;;;203.25;50.35;;;20.30;1.00;;;;;;5019617;28;20230;-54
2022/05/25 10:52:30;;;;;;;141.18;33.75;;;20.70;99.90;;;;;;5020959;28;20215;-54
2022/05/25 10:54:56;;;;;;;108.78;91.78;;;;;;;;;;5033925;28;20429;-54
2022/05/25 10:57:40;;;;;;;166.38;45.80;;;20.90;1.00;;;;;;5033094;28;20551;-54
2022/05/25 11:00:46;;;;;;;141.57;36.95;;;21.00;99.90;;;;;;5031007;28;20215;-54
2022/05/25 11:03:31;;;;;;;160.60;40.55;;;21.10;99.90;;;;;;5006677;28;20207;-52
2022/05/25 11:06:29;;;;;;;142.07;35.15;;;21.40;99.90;;;;;;5032838;28;20212;-54
2022/05/25 11:09:28;;;;;;;70.28;20.65;;;21.70;1.00;;;;;;5030440;28;20636;-54
2022/05/25 11:12:01;;;;;;;137.25;29.58;;;21.60;99.90;;;;;;5028705;28;20218;-52
2022/05/25 11:14:59;;;;;;;88.15;21.38;;;22.00;99.90;;;;;;5040866;28;20187;-53
2022/05/25 11:17:25;;;;;;;130.68;28.02;;;;;;;;;;5028933;28;20208;-53
2022/05/25 11:19:51;;;;;;;153.98;31.67;;;;;;;;;;5016997;28;20628;-54
2022/05/25 11:22:25;;;;;;;84.20;21.00;;;21.60;1.00;;;;;;5029966;28;20731;-54
2022/05/25 11:25:19;;;;;;;142.52;31.52;;;21.10;99.90;;;;;;5036328;28;20215;-54
2022/05/25 11:28:16;;;;;;;111.47;29.75;;;21.40;99.90;;;;;;5027647;28;20230;-53
2022/05/25 11:31:00;;;;;;;38.83;13.70;;;21.90;99.90;;;;;;5039953;28;20215;-54
2022/05/25 11:33:48;;;;;;;130.85;33.63;;;21.40;1.00;;;;;;5036079;28;20211;-54
2022/05/25 11:36:49;;;;;;;91.93;25.58;;;21.70;99.90;;;;;;5026640;28;21066;-53
2022/05/25 11:39:53;;;;;;;108.15;28.33;;;21.90;99.90;;;;;;5030855;28;20617;-53
2022/05/25 11:42:34;;;;;;;111.63;30.67;;;22.10;1.00;;;;;;5030220;28;20704;-54
2022/05/25 11:45:35;;;;;;;159.20;42.25;;;21.80;93.80;;;;;;5028751;28;20215;-54
2022/05/25 11:48:39;;;;;;;103.35;27.20;;;21.90;1.00;;;;;;5026846;28;20241;-54
2022/05/25 11:51:35;;;;;;;189.27;52.83;;;22.70;1.00;;;;;;5030685;28;20330;-54
2022/05/25 11:54:01;;;;;;;91.38;23.98;;;;;;;;;;5036223;28;20223;-53
2022/05/25 11:56:51;;;;;;;102.20;27.80;;;22.30;5.90;;;;;;5039799;28;20187;-53
2022/05/25 11:59:39;;;;;;;67.53;21.63;;;22.40;18.30;;;;;;5033487;28;20301;-53
2022/05/25 12:02:37;;;;;;;134.48;38.28;;;23.10;99.90;;;;;;5040890;28;20304;-53
2022/05/25 12:05:02;;;;;;;129.48;35.40;;;;;;;;;;5037267;28;20212;-52
2022/05/25 12:07:54;;;;;;;110.35;34.20;;;22.90;1.00;;;;;;5034686;28;20234;-54
2022/05/25 12:10:36;;;;;;;96.22;28.40;;;23.20;1.00;;;;;;5036714;28;20208;-53
2022/05/25 12:13:14;;;;;;;96.40;28.77;;;23.00;1.00;;;;;;5037549;28;20306;-54
2022/05/25 12:16:14;;;;;;;84.35;26.70;;;23.10;1.00;;;;;;5030390;28;20243;-54
2022/05/25 12:18:54;;;;;;;91.03;28.38;;;23.40;1.00;;;;;;5036112;28;20794;-53
2022/05/25 12:21:26;;;;;;;136.55;44.25;;;23.50;1.00;;;;;;5032339;28;20250;-54
2022/05/25 12:24:00;;;;;;;160.35;47.75;;;24.30;1.00;;;;;;5028043;28;20223;-54
2022/05/25 12:26:29;;;;;;;331.67;93.57;;;24.50;96.00;;;;;;5027006;28;20593;-57
2022/05/25 12:29:13;;;;;;;184.85;61.03;;;24.70;1.00;;;;;;5017022;28;20223;-58
2022/05/25 12:31:41;;;;;;;234.35;71.15;;;24.40;1.00;;;;;;5022509;28;20269;-58
2022/05/25 12:34:10;;;;;;;189.55;54.60;;;24.80;1.00;;;;;;5020675;28;20223;-57
2022/05/25 12:36:36;;;;;;;189.95;53.67;;;24.50;99.90;;;;;;5017496;28;20247;-58
2022/05/25 12:39:01;;;;;;;191.55;53.80;;;24.40;1.00;;;;;;5014946;28;20865;-58
2022/05/25 12:41:32;;;;;;;185.90;52.50;;;24.00;1.00;;;;;;5023448;28;20214;-58
2022/05/25 12:44:01;;;;;;;97.57;39.90;;;23.70;1.00;;;;;;5030733;28;20176;-58
2022/05/25 12:49:49;;;;;;;159.25;44.30;;;;;;;;;;5025876;28;20235;-53
2022/05/25 12:52:27;;;;;;;188.35;60.42;;;23.70;1.00;;;;;;5015130;28;20909;-54
2022/05/25 12:55:30;;;;;;;160.20;51.72;;;23.50;1.00;;;;;;5026307;28;20675;-53
2022/05/25 12:57:56;;;;;;;186.23;51.85;;;23.10;99.90;;;;;;5022157;28;20339;-54
2022/05/25 13:00:28;;;;;;;183.57;54.15;;;23.10;99.90;;;;;;5019338;28;20211;-53
2022/05/25 13:02:55;;;;;;;174.23;56.50;;;;;;;;;;5020714;28;20212;-53
2022/05/25 13:05:57;;;;;;;204.38;58.20;;;23.50;87.30;;;;;;5015720;28;20258;-53
2022/05/25 13:08:48;;;;;;;205.43;56.88;;;23.30;1.00;;;;;;5013035;28;20246;-53
2022/05/25 13:11:38;;;;;;;193.68;53.45;;;23.60;1.00;;;;;;5027263;28;20219;-52
2022/05/25 13:14:24;;;;;;;197.27;56.90;;;23.70;1.00;;;;;;5029165;28;20219;-52
2022/05/25 13:16:54;;;;;;;168.27;53.88;;;23.60;1.00;;;;;;5026558;28;20266;-52
2022/05/25 13:19:41;;;;;;;102.28;35.92;;;23.70;23.30;;;;;;5027702;28;20207;-54
2022/05/25 13:22:22;;;;;;;234.23;68.38;;;23.60;1.00;;;;;;5020155;28;20246;-52
2022/05/25 13:25:08;;;;;;;151.30;49.53;;;23.70;1.00;;;;;;5020500;28;20211;-55
2022/05/25 13:27:42;;;;;;;202.25;65.85;;;24.00;1.00;;;;;;5019788;28;20231;-54
2022/05/25 13:30:29;;;;;;;208.88;76.10;;;24.50;1.00;;;;;;5014693;28;20218;-52
2022/05/25 13:33:00;;;;;;;342.10;125.22;;;24.90;1.00;;;;;;5013082;28;20260;-52
2022/05/25 13:35:39;;;;;;;127.22;51.97;;;25.00;1.00;;;;;;5026379;28;22118;-52
2022/05/25 13:38:22;;;;;;;111.97;48.63;;;25.60;1.00;;;;;;5028416;28;20231;-52
2022/05/25 13:41:02;;;;;;;151.27;73.38;;;25.90;1.00;;;;;;5031925;28;20603;-54
2022/05/25 13:43:46;;;;;;;234.85;109.55;;;26.00;1.00;;;;;;5020849;28;20222;-54
2022/05/25 13:46:13;;;;;;;89.05;80.00;;;;;;;;;;5047363;28;20215;-54